Terminal Aerodrome Forecast
Issued by NWS Grand Forks, ND

Home | Current Version | Previous Version | Graphics & Text | Print | Product List | Glossary On
Versions: 1 2 3 4 5 6 7 8 9 10 11 12 13 14 15 16
053
FTUS43 KFGF 202020 AAB
TAFGFK
TAF AMD
KGFK 202020Z 2020/2118 29011KT P6SM SCT020
     FM210200 26008KT P6SM FEW150=

USA.gov is the U.S. government's official web portal to all federal, state and local government web resources and services.